Terminal Aerodrome Forecast
Issued by NWS Wilmington, OH

Current Version | Previous Version | Graphics & Text | Print | Product List | Glossary On
Versions: 1 2 3 4 5 6 7 8 9 10 11 12 13 14 15 16 17 18 19 20 21 22 23 24
000
FTUS41 KILN 291411 AAB
TAFILN
TAF AMD
KILN 291411Z 2914/3012 VRB04KT 5SM BR BKN015
     FM291700 04005KT P6SM OVC022
     FM291900 03004KT P6SM -SHRA SCT025 OVC040
     FM300600 06004KT 4SM -SHRA BR OVC012
     FM300900 06004KT 4SM -SHRA BR OVC004=

USA.gov is the U.S. government's official web portal to all federal, state and local government web resources and services.